sensor_id;sensor_type;location;lat;lon;timestamp;pressure;altitude;pressure_sealevel;temperature;humidity
59859;BME280;45734;53.648;9.566;2024-03-17T00:01:44;53292.97;;;-145.06;100.00
59859;BME280;45734;53.648;9.566;2024-03-17T00:06:45;53301.09;;;-145.06;100.00
59859;BME280;45734;53.648;9.566;2024-03-17T00:11:45;53248.44;;;-145.06;100.00
59859;BME280;45734;53.648;9.566;2024-03-17T00:16:46;53254.50;;;-145.06;100.00
59859;BME280;45734;53.648;9.566;2024-03-17T00:21:46;53264.63;;;-145.06;100.00
59859;BME280;45734;53.648;9.566;2024-03-17T00:26:47;53224.13;;;-145.06;100.00
59859;BME280;45734;53.648;9.566;2024-03-17T00:31:47;53236.28;;;-145.06;100.00
59859;BME280;45734;53.648;9.566;2024-03-17T00:36:48;53167.44;;;-145.06;100.00
59859;BME280;45734;53.648;9.566;2024-03-17T00:41:48;53191.75;;;-145.06;100.00
59859;BME280;45734;53.648;9.566;2024-03-17T00:46:49;53189.72;;;-145.06;100.00
59859;BME280;45734;53.648;9.566;2024-03-17T00:51:49;53232.25;;;-145.06;100.00
59859;BME280;45734;53.648;9.566;2024-03-17T00:56:50;53222.13;;;-145.06;100.00
59859;BME280;45734;53.648;9.566;2024-03-17T01:01:51;53236.28;;;-145.06;100.00
59859;BME280;45734;53.648;9.566;2024-03-17T01:06:51;53246.41;;;-145.06;100.00
59859;BME280;45734;53.648;9.566;2024-03-17T01:11:52;53240.34;;;-145.06;100.00
59859;BME280;45734;53.648;9.566;2024-03-17T01:16:52;53252.50;;;-145.06;100.00
59859;BME280;45734;53.648;9.566;2024-03-17T01:21:52;53272.75;;;-145.06;100.00
59859;BME280;45734;53.648;9.566;2024-03-17T01:26:53;53276.78;;;-145.06;100.00
59859;BME280;45734;53.648;9.566;2024-03-17T01:31:53;53274.75;;;-145.06;100.00
59859;BME280;45734;53.648;9.566;2024-03-17T01:36:54;53307.16;;;-145.06;100.00
59859;BME280;45734;53.648;9.566;2024-03-17T01:41:54;53284.88;;;-145.06;100.00
59859;BME280;45734;53.648;9.566;2024-03-17T01:46:55;53280.84;;;-145.06;100.00
59859;BME280;45734;53.648;9.566;2024-03-17T01:51:56;53264.63;;;-145.06;100.00
59859;BME280;45734;53.648;9.566;2024-03-17T01:56:56;53264.63;;;-145.06;100.00
59859;BME280;45734;53.648;9.566;2024-03-17T02:01:57;53282.88;;;-145.06;100.00
59859;BME280;45734;53.648;9.566;2024-03-17T02:06:57;53220.09;;;-145.06;100.00
59859;BME280;45734;53.648;9.566;2024-03-17T02:11:57;53212.00;;;-145.06;100.00
59859;BME280;45734;53.648;9.566;2024-03-17T02:16:57;53157.31;;;-145.06;100.00
59859;BME280;45734;53.648;9.566;2024-03-17T02:21:59;53151.25;;;-145.06;100.00
59859;BME280;45734;53.648;9.566;2024-03-17T02:26:59;53195.78;;;-145.06;100.00
59859;BME280;45734;53.648;9.566;2024-03-17T02:32:01;53183.66;;;-145.06;100.00
59859;BME280;45734;53.648;9.566;2024-03-17T02:37:06;53175.53;;;-145.06;100.00
59859;BME280;45734;53.648;9.566;2024-03-17T02:42:08;53224.13;;;-145.06;100.00
59859;BME280;45734;53.648;9.566;2024-03-17T02:47:09;53226.16;;;-145.06;100.00
59859;BME280;45734;53.648;9.566;2024-03-17T02:52:10;53218.06;;;-145.06;100.00
59859;BME280;45734;53.648;9.566;2024-03-17T02:57:12;53280.84;;;-145.06;100.00
59859;BME280;45734;53.648;9.566;2024-03-17T03:02:12;53262.63;;;-145.06;100.00
59859;BME280;45734;53.648;9.566;2024-03-17T03:07:12;53272.75;;;-145.06;100.00
59859;BME280;45734;53.648;9.566;2024-03-17T03:12:12;53266.66;;;-145.06;100.00
59859;BME280;45734;53.648;9.566;2024-03-17T03:17:13;53244.38;;;-145.06;100.00
59859;BME280;45734;53.648;9.566;2024-03-17T03:22:13;53169.47;;;-145.06;100.00
59859;BME280;45734;53.648;9.566;2024-03-17T03:27:13;53143.16;;;-145.06;100.00
59859;BME280;45734;53.648;9.566;2024-03-17T03:32:13;53167.44;;;-145.06;100.00
59859;BME280;45734;53.648;9.566;2024-03-17T03:37:14;53102.66;;;-145.06;100.00
59859;BME280;45734;53.648;9.566;2024-03-17T03:42:14;53110.75;;;-145.06;100.00
59859;BME280;45734;53.648;9.566;2024-03-17T03:47:14;53094.56;;;-145.06;100.00
59859;BME280;45734;53.648;9.566;2024-03-17T03:52:15;53056.09;;;-145.06;100.00
59859;BME280;45734;53.648;9.566;2024-03-17T03:57:15;53009.50;;;-145.06;100.00
59859;BME280;45734;53.648;9.566;2024-03-17T04:02:15;53064.19;;;-145.06;100.00
59859;BME280;45734;53.648;9.566;2024-03-17T04:07:16;53039.88;;;-145.06;100.00
59859;BME280;45734;53.648;9.566;2024-03-17T04:12:16;53013.56;;;-145.06;100.00
59859;BME280;45734;53.648;9.566;2024-03-17T04:17:17;53029.75;;;-145.06;100.00
59859;BME280;45734;53.648;9.566;2024-03-17T04:22:18;53045.97;;;-145.06;100.00
59859;BME280;45734;53.648;9.566;2024-03-17T04:27:25;53076.34;;;-145.06;100.00
59859;BME280;45734;53.648;9.566;2024-03-17T04:32:26;53128.97;;;-145.06;100.00
59859;BME280;45734;53.648;9.566;2024-03-17T04:37:31;53126.94;;;-145.06;100.00
59859;BME280;45734;53.648;9.566;2024-03-17T04:42:31;53135.06;;;-145.06;100.00
59859;BME280;45734;53.648;9.566;2024-03-17T04:47:31;53151.25;;;-145.06;100.00
59859;BME280;45734;53.648;9.566;2024-03-17T04:52:31;53147.19;;;-145.06;100.00
59859;BME280;45734;53.648;9.566;2024-03-17T04:57:32;53218.06;;;-145.06;100.00
59859;BME280;45734;53.648;9.566;2024-03-17T05:02:32;53199.84;;;-145.06;100.00
59859;BME280;45734;53.648;9.566;2024-03-17T05:07:34;53214.00;;;-145.06;100.00
59859;BME280;45734;53.648;9.566;2024-03-17T05:12:34;53209.97;;;-145.06;100.00
59859;BME280;45734;53.648;9.566;2024-03-17T05:17:35;53226.16;;;-145.06;100.00
59859;BME280;45734;53.648;9.566;2024-03-17T05:22:35;53216.03;;;-145.06;100.00
59859;BME280;45734;53.648;9.566;2024-03-17T05:27:35;53228.19;;;-145.06;100.00
59859;BME280;45734;53.648;9.566;2024-03-17T05:32:36;53193.78;;;-145.06;100.00
59859;BME280;45734;53.648;9.566;2024-03-17T05:37:36;53126.94;;;-145.06;100.00
59859;BME280;45734;53.648;9.566;2024-03-17T05:42:36;53098.59;;;-145.06;100.00
59859;BME280;45734;53.648;9.566;2024-03-17T05:47:40;52977.13;;;-145.06;100.00
59859;BME280;45734;53.648;9.566;2024-03-17T05:52:41;52888.03;;;-145.06;100.00
59859;BME280;45734;53.648;9.566;2024-03-17T05:57:41;52811.09;;;-145.06;100.00
59859;BME280;45734;53.648;9.566;2024-03-17T06:02:43;52786.81;;;-145.06;100.00
59859;BME280;45734;53.648;9.566;2024-03-17T06:07:44;52809.06;;;-145.06;100.00
59859;BME280;45734;53.648;9.566;2024-03-17T06:12:44;52748.34;;;-145.06;100.00
59859;BME280;45734;53.648;9.566;2024-03-17T06:17:44;52637.00;;;-145.06;100.00
59859;BME280;45734;53.648;9.566;2024-03-17T06:22:45;52592.44;;;-145.06;100.00
59859;BME280;45734;53.648;9.566;2024-03-17T06:27:45;52527.66;;;-145.06;99.33
59859;BME280;45734;53.648;9.566;2024-03-17T06:32:46;52527.66;;;-145.06;93.74
59859;BME280;45734;53.648;9.566;2024-03-17T06:37:46;52491.22;;;-145.06;91.56
59859;BME280;45734;53.648;9.566;2024-03-17T06:42:47;52477.06;;;-145.06;90.15
59859;BME280;45734;53.648;9.566;2024-03-17T06:47:47;52398.09;;;-145.06;86.33
59859;BME280;45734;53.648;9.566;2024-03-17T06:52:48;52315.09;;;-145.06;82.27
59859;BME280;45734;53.648;9.566;2024-03-17T06:57:48;52302.97;;;-145.06;76.52
59859;BME280;45734;53.648;9.566;2024-03-17T07:02:49;52292.84;;;-145.06;75.82
59859;BME280;45734;53.648;9.566;2024-03-17T07:07:49;52201.75;;;-145.06;73.40
59859;BME280;45734;53.648;9.566;2024-03-17T07:12:49;52232.09;;;-145.06;69.86
59859;BME280;45734;53.648;9.566;2024-03-17T07:17:50;52256.41;;;-145.06;66.37
59859;BME280;45734;53.648;9.566;2024-03-17T07:22:50;52238.19;;;-145.06;65.66
59859;BME280;45734;53.648;9.566;2024-03-17T07:27:51;52313.06;;;-145.06;59.37
59859;BME280;45734;53.648;9.566;2024-03-17T07:32:51;52288.78;;;-145.06;57.87
59859;BME280;45734;53.648;9.566;2024-03-17T07:37:51;52390.00;;;-145.06;54.64
59859;BME280;45734;53.648;9.566;2024-03-17T07:42:52;52442.63;;;-145.06;53.57
59859;BME280;45734;53.648;9.566;2024-03-17T07:47:53;52507.41;;;-145.06;53.43
59859;BME280;45734;53.648;9.566;2024-03-17T07:52:53;52645.09;;;-145.06;51.16
59859;BME280;45734;53.648;9.566;2024-03-17T07:57:54;52604.59;;;-145.06;52.49
59859;BME280;45734;53.648;9.566;2024-03-17T08:02:54;52675.44;;;-145.06;50.85
59859;BME280;45734;53.648;9.566;2024-03-17T08:07:54;52685.56;;;-145.06;51.32
59859;BME280;45734;53.648;9.566;2024-03-17T08:12:54;52748.34;;;-145.06;48.34
59859;BME280;45734;53.648;9.566;2024-03-17T08:17:55;52784.78;;;-145.06;47.54
59859;BME280;45734;53.648;9.566;2024-03-17T08:22:56;52867.78;;;-145.06;46.12
59859;BME280;45734;53.648;9.566;2024-03-17T08:27:56;53021.66;;;-145.06;45.69
59859;BME280;45734;53.648;9.566;2024-03-17T08:32:57;52993.31;;;-145.06;46.98
59859;BME280;45734;53.648;9.566;2024-03-17T08:37:57;53084.44;;;-145.06;47.57
59859;BME280;45734;53.648;9.566;2024-03-17T08:42:58;53159.34;;;-145.06;50.02
59859;BME280;45734;53.648;9.566;2024-03-17T08:47:58;53266.66;;;-145.06;49.42
59859;BME280;45734;53.648;9.566;2024-03-17T08:52:59;53096.56;;;-145.06;51.20
59859;BME280;45734;53.648;9.566;2024-03-17T08:57:59;53126.94;;;-145.06;48.60
59859;BME280;45734;53.648;9.566;2024-03-17T09:03:00;53143.16;;;-145.06;46.44
59859;BME280;45734;53.648;9.566;2024-03-17T09:08:00;53153.28;;;-145.06;46.34
59859;BME280;45734;53.648;9.566;2024-03-17T09:13:01;53159.34;;;-145.06;45.70
59859;BME280;45734;53.648;9.566;2024-03-17T09:18:01;53220.09;;;-145.06;45.41
59859;BME280;45734;53.648;9.566;2024-03-17T09:23:03;53272.75;;;-145.06;46.84
59859;BME280;45734;53.648;9.566;2024-03-17T09:28:04;53361.81;;;-145.06;45.67
59859;BME280;45734;53.648;9.566;2024-03-17T09:33:04;53371.97;;;-145.06;46.64
59859;BME280;45734;53.648;9.566;2024-03-17T09:38:04;53337.53;;;-145.06;48.79
59859;BME280;45734;53.648;9.566;2024-03-17T09:43:08;53365.88;;;-145.06;48.62
59859;BME280;45734;53.648;9.566;2024-03-17T09:48:14;53390.19;;;-145.06;49.28
59859;BME280;45734;53.648;9.566;2024-03-17T09:53:16;53361.81;;;-145.06;49.08
59859;BME280;45734;53.648;9.566;2024-03-17T09:58:18;53361.81;;;-145.06;49.26
59859;BME280;45734;53.648;9.566;2024-03-17T10:03:44;53418.53;;;-145.06;48.48
59859;BME280;45734;53.648;9.566;2024-03-17T10:08:47;53394.22;;;-145.06;49.47
59859;BME280;45734;53.648;9.566;2024-03-17T10:13:59;53388.16;;;-145.06;49.47
59859;BME280;45734;53.648;9.566;2024-03-17T10:24:19;53398.28;;;-145.06;48.75
59859;BME280;45734;53.648;9.566;2024-03-17T10:29:24;53355.75;;;-145.06;50.30
59859;BME280;45734;53.648;9.566;2024-03-17T10:34:26;53363.84;;;-145.06;51.03
59859;BME280;45734;53.648;9.566;2024-03-17T10:39:28;53402.31;;;-145.06;47.62
59859;BME280;45734;53.648;9.566;2024-03-17T10:44:30;53580.53;;;-145.06;46.86
59859;BME280;45734;53.648;9.566;2024-03-17T10:49:32;53546.09;;;-145.06;50.16
59859;BME280;45734;53.648;9.566;2024-03-17T10:54:33;53588.63;;;-145.06;49.31
59859;BME280;45734;53.648;9.566;2024-03-17T10:59:41;53633.19;;;-145.06;48.06
59859;BME280;45734;53.648;9.566;2024-03-17T11:04:42;53540.03;;;-145.06;49.24
59859;BME280;45734;53.648;9.566;2024-03-17T11:09:43;53461.06;;;-145.06;51.03
59859;BME280;45734;53.648;9.566;2024-03-17T11:14:44;53495.47;;;-145.06;49.13
59859;BME280;45734;53.648;9.566;2024-03-17T11:20:13;53564.31;;;-145.06;47.25
59859;BME280;45734;53.648;9.566;2024-03-17T11:35:51;53584.56;;;-145.06;48.85
59859;BME280;45734;53.648;9.566;2024-03-17T11:40:52;53580.53;;;-145.06;48.98
59859;BME280;45734;53.648;9.566;2024-03-17T11:45:54;53566.34;;;-145.06;49.66
59859;BME280;45734;53.648;9.566;2024-03-17T11:50:55;53544.06;;;-145.06;49.11
59859;BME280;45734;53.648;9.566;2024-03-17T11:55:55;53612.94;;;-145.06;49.72
59859;BME280;45734;53.648;9.566;2024-03-17T12:00:56;53604.81;;;-145.06;50.26
59859;BME280;45734;53.648;9.566;2024-03-17T12:05:56;53633.19;;;-145.06;49.12
59859;BME280;45734;53.648;9.566;2024-03-17T12:10:56;53655.44;;;-145.06;49.76
59859;BME280;45734;53.648;9.566;2024-03-17T12:16:10;53661.53;;;-145.06;50.30
59859;BME280;45734;53.648;9.566;2024-03-17T12:21:13;53625.06;;;-145.06;50.55
59859;BME280;45734;53.648;9.566;2024-03-17T12:26:15;53621.03;;;-145.06;50.94
59859;BME280;45734;53.648;9.566;2024-03-17T12:31:16;53702.03;;;-145.06;48.54
59859;BME280;45734;53.648;9.566;2024-03-17T12:36:17;53623.06;;;-145.06;50.23
59859;BME280;45734;53.648;9.566;2024-03-17T12:41:17;53653.44;;;-145.06;48.52
59859;BME280;45734;53.648;9.566;2024-03-17T12:46:18;53604.81;;;-145.06;49.97
59859;BME280;45734;53.648;9.566;2024-03-17T12:51:18;53604.81;;;-145.06;49.19
59859;BME280;45734;53.648;9.566;2024-03-17T12:56:24;53633.19;;;-145.06;48.40
59859;BME280;45734;53.648;9.566;2024-03-17T13:01:43;53552.19;;;-145.06;49.68
59859;BME280;45734;53.648;9.566;2024-03-17T13:06:44;53540.03;;;-145.06;51.29
59859;BME280;45734;53.648;9.566;2024-03-17T13:11:44;53606.84;;;-145.06;47.31
59859;BME280;45734;53.648;9.566;2024-03-17T13:16:44;53675.69;;;-145.06;46.53
59859;BME280;45734;53.648;9.566;2024-03-17T13:21:46;53681.78;;;-145.06;47.26
59859;BME280;45734;53.648;9.566;2024-03-17T13:26:47;53720.25;;;-145.06;46.93
59859;BME280;45734;53.648;9.566;2024-03-17T13:31:49;53736.44;;;-145.06;47.91
59859;BME280;45734;53.648;9.566;2024-03-17T13:36:53;53663.56;;;-145.06;51.47
59859;BME280;45734;53.648;9.566;2024-03-17T13:41:53;53691.91;;;-145.06;48.34
59859;BME280;45734;53.648;9.566;2024-03-17T13:46:57;53722.28;;;-145.06;46.01
59859;BME280;45734;53.648;9.566;2024-03-17T13:51:58;53726.31;;;-145.06;47.53
59859;BME280;45734;53.648;9.566;2024-03-17T13:56:58;53695.94;;;-145.06;48.30
59859;BME280;45734;53.648;9.566;2024-03-17T14:02:02;53708.09;;;-145.06;47.92
59859;BME280;45734;53.648;9.566;2024-03-17T14:07:02;53661.53;;;-145.06;49.56
59859;BME280;45734;53.648;9.566;2024-03-17T14:12:03;53706.06;;;-145.06;47.99
59859;BME280;45734;53.648;9.566;2024-03-17T14:17:03;53712.16;;;-145.06;47.99
59859;BME280;45734;53.648;9.566;2024-03-17T14:22:03;53647.34;;;-145.06;50.12
59859;BME280;45734;53.648;9.566;2024-03-17T14:27:04;53616.97;;;-145.06;49.98
59859;BME280;45734;53.648;9.566;2024-03-17T14:32:06;53629.13;;;-145.06;48.20
59859;BME280;45734;53.648;9.566;2024-03-17T14:37:06;53619.00;;;-145.06;48.69
59859;BME280;45734;53.648;9.566;2024-03-17T14:42:07;53619.00;;;-145.06;48.73
59859;BME280;45734;53.648;9.566;2024-03-17T14:47:07;53655.44;;;-145.06;47.31
59859;BME280;45734;53.648;9.566;2024-03-17T14:52:08;53730.38;;;-145.06;46.08
59859;BME280;45734;53.648;9.566;2024-03-17T14:57:09;53726.31;;;-145.06;47.62
59859;BME280;45734;53.648;9.566;2024-03-17T15:02:10;53795.19;;;-145.06;46.08
59859;BME280;45734;53.648;9.566;2024-03-17T15:07:10;53742.53;;;-145.06;48.84
59859;BME280;45734;53.648;9.566;2024-03-17T15:12:12;53710.13;;;-145.06;49.26
59859;BME280;45734;53.648;9.566;2024-03-17T15:17:13;53797.22;;;-145.06;45.96
59859;BME280;45734;53.648;9.566;2024-03-17T15:22:15;53819.47;;;-145.06;45.67
59859;BME280;45734;53.648;9.566;2024-03-17T15:27:15;53815.44;;;-145.06;46.30
59859;BME280;45734;53.648;9.566;2024-03-17T15:32:15;53815.44;;;-145.06;46.34
59859;BME280;45734;53.648;9.566;2024-03-17T15:37:16;53783.03;;;-145.06;50.28
59859;BME280;45734;53.648;9.566;2024-03-17T15:42:17;53841.75;;;-145.06;47.79
59859;BME280;45734;53.648;9.566;2024-03-17T15:47:17;53811.38;;;-145.06;50.80
59859;BME280;45734;53.648;9.566;2024-03-17T15:52:18;53787.06;;;-145.06;54.98
59859;BME280;45734;53.648;9.566;2024-03-17T15:57:18;53764.81;;;-145.06;55.29
59859;BME280;45734;53.648;9.566;2024-03-17T16:02:18;53693.94;;;-145.06;61.38
59859;BME280;45734;53.648;9.566;2024-03-17T16:07:19;53706.06;;;-145.06;62.15
59859;BME280;45734;53.648;9.566;2024-03-17T16:12:19;53720.25;;;-145.06;63.04
59859;BME280;45734;53.648;9.566;2024-03-17T16:17:21;53702.03;;;-145.06;61.23
59859;BME280;45734;53.648;9.566;2024-03-17T16:22:21;53693.94;;;-145.06;64.67
59859;BME280;45734;53.648;9.566;2024-03-17T16:27:22;53754.69;;;-145.06;63.61
59859;BME280;45734;53.648;9.566;2024-03-17T16:32:23;53702.03;;;-145.06;67.06
59859;BME280;45734;53.648;9.566;2024-03-17T16:37:23;53726.31;;;-145.06;65.51
59859;BME280;45734;53.648;9.566;2024-03-17T16:42:24;53770.88;;;-145.06;61.83
59859;BME280;45734;53.648;9.566;2024-03-17T16:47:29;53714.19;;;-145.06;67.27
59859;BME280;45734;53.648;9.566;2024-03-17T16:52:31;53748.59;;;-145.06;65.90
59859;BME280;45734;53.648;9.566;2024-03-17T16:57:32;53748.59;;;-145.06;66.31
59859;BME280;45734;53.648;9.566;2024-03-17T17:02:33;53772.91;;;-145.06;67.96
59859;BME280;45734;53.648;9.566;2024-03-17T17:07:34;53783.03;;;-145.06;67.53
59859;BME280;45734;53.648;9.566;2024-03-17T17:12:34;53774.94;;;-145.06;68.54
59859;BME280;45734;53.648;9.566;2024-03-17T17:17:34;53795.19;;;-145.06;68.92
59859;BME280;45734;53.648;9.566;2024-03-17T17:22:35;53783.03;;;-145.06;68.64
59859;BME280;45734;53.648;9.566;2024-03-17T17:27:35;53799.22;;;-145.06;72.49
59859;BME280;45734;53.648;9.566;2024-03-17T17:32:35;53807.31;;;-145.06;74.42
59859;BME280;45734;53.648;9.566;2024-03-17T17:37:36;53776.94;;;-145.06;77.61
59859;BME280;45734;53.648;9.566;2024-03-17T17:42:38;53815.44;;;-145.06;73.60
59859;BME280;45734;53.648;9.566;2024-03-17T17:47:38;53783.03;;;-145.06;73.51
59859;BME280;45734;53.648;9.566;2024-03-17T17:52:41;53795.19;;;-145.06;73.22
59859;BME280;45734;53.648;9.566;2024-03-17T17:57:41;53809.34;;;-145.06;73.64
59859;BME280;45734;53.648;9.566;2024-03-17T18:02:41;53851.88;;;-145.06;71.73
59859;BME280;45734;53.648;9.566;2024-03-17T18:07:42;53835.69;;;-145.06;73.42
59859;BME280;45734;53.648;9.566;2024-03-17T18:12:43;53845.81;;;-145.06;74.36
59859;BME280;45734;53.648;9.566;2024-03-17T18:17:43;53855.94;;;-145.06;74.45
59859;BME280;45734;53.648;9.566;2024-03-17T18:22:43;53880.22;;;-145.06;74.65
59859;BME280;45734;53.648;9.566;2024-03-17T18:27:44;53882.25;;;-145.06;74.33
59859;BME280;45734;53.648;9.566;2024-03-17T18:32:44;53880.22;;;-145.06;72.43
59859;BME280;45734;53.648;9.566;2024-03-17T18:37:44;53868.09;;;-145.06;74.31
59859;BME280;45734;53.648;9.566;2024-03-17T18:42:45;53870.09;;;-145.06;76.06
59859;BME280;45734;53.648;9.566;2024-03-17T18:47:49;53864.03;;;-145.06;75.68
59859;BME280;45734;53.648;9.566;2024-03-17T18:52:52;53882.25;;;-145.06;77.69
59859;BME280;45734;53.648;9.566;2024-03-17T18:57:53;53841.75;;;-145.06;78.20
59859;BME280;45734;53.648;9.566;2024-03-17T19:02:53;53866.06;;;-145.06;78.79
59859;BME280;45734;53.648;9.566;2024-03-17T19:07:53;53880.22;;;-145.06;77.07
59859;BME280;45734;53.648;9.566;2024-03-17T19:12:54;53898.47;;;-145.06;77.63
59859;BME280;45734;53.648;9.566;2024-03-17T19:17:54;53837.72;;;-145.06;77.06
59859;BME280;45734;53.648;9.566;2024-03-17T19:22:54;53864.03;;;-145.06;77.43
59859;BME280;45734;53.648;9.566;2024-03-17T19:27:55;53882.25;;;-145.06;77.67
59859;BME280;45734;53.648;9.566;2024-03-17T19:32:55;53922.75;;;-145.06;76.79
59859;BME280;45734;53.648;9.566;2024-03-17T19:37:55;53884.28;;;-145.06;77.98
59859;BME280;45734;53.648;9.566;2024-03-17T19:42:56;53898.47;;;-145.06;77.98
59859;BME280;45734;53.648;9.566;2024-03-17T19:47:56;53884.28;;;-145.06;77.61
59859;BME280;45734;53.648;9.566;2024-03-17T19:52:56;53884.28;;;-145.06;77.17
59859;BME280;45734;53.648;9.566;2024-03-17T19:57:57;53876.19;;;-145.06;77.76
59859;BME280;45734;53.648;9.566;2024-03-17T20:02:57;53872.13;;;-145.06;78.44
59859;BME280;45734;53.648;9.566;2024-03-17T20:07:57;53884.28;;;-145.06;79.36
59859;BME280;45734;53.648;9.566;2024-03-17T20:12:58;53894.41;;;-145.06;79.60
59859;BME280;45734;53.648;9.566;2024-03-17T20:17:59;53882.25;;;-145.06;82.65
59859;BME280;45734;53.648;9.566;2024-03-17T20:23:00;53904.53;;;-145.06;83.07
59859;BME280;45734;53.648;9.566;2024-03-17T20:28:02;53894.41;;;-145.06;82.95
59859;BME280;45734;53.648;9.566;2024-03-17T20:33:02;53855.94;;;-145.06;83.32
59859;BME280;45734;53.648;9.566;2024-03-17T20:38:03;53888.34;;;-145.06;82.69
59859;BME280;45734;53.648;9.566;2024-03-17T20:43:04;53876.19;;;-145.06;84.40
59859;BME280;45734;53.648;9.566;2024-03-17T20:48:05;53878.22;;;-145.06;84.28
59859;BME280;45734;53.648;9.566;2024-03-17T20:53:06;53902.50;;;-145.06;82.17
59859;BME280;45734;53.648;9.566;2024-03-17T20:58:11;53916.69;;;-145.06;82.17
59859;BME280;45734;53.648;9.566;2024-03-17T21:03:12;53926.81;;;-145.06;82.01
59859;BME280;45734;53.648;9.566;2024-03-17T21:08:12;53880.22;;;-145.06;82.12
59859;BME280;45734;53.648;9.566;2024-03-17T21:13:16;53892.38;;;-145.06;83.15
59859;BME280;45734;53.648;9.566;2024-03-17T21:18:16;53906.56;;;-145.06;84.16
59859;BME280;45734;53.648;9.566;2024-03-17T21:23:17;53930.88;;;-145.06;83.69
59859;BME280;45734;53.648;9.566;2024-03-17T21:28:18;53900.50;;;-145.06;83.92
59859;BME280;45734;53.648;9.566;2024-03-17T21:33:18;53916.69;;;-145.06;84.53
59859;BME280;45734;53.648;9.566;2024-03-17T21:38:18;53874.16;;;-145.06;85.43
59859;BME280;45734;53.648;9.566;2024-03-17T21:43:18;53920.75;;;-145.06;83.72
59859;BME280;45734;53.648;9.566;2024-03-17T21:48:19;53918.72;;;-145.06;83.85
59859;BME280;45734;53.648;9.566;2024-03-17T21:53:20;53890.38;;;-145.06;82.02
59859;BME280;45734;53.648;9.566;2024-03-17T21:58:20;53928.84;;;-145.06;81.32
59859;BME280;45734;53.648;9.566;2024-03-17T22:03:20;53941.00;;;-145.06;80.77
59859;BME280;45734;53.648;9.566;2024-03-17T22:08:21;53945.03;;;-145.06;79.48
59859;BME280;45734;53.648;9.566;2024-03-17T22:13:28;53953.13;;;-145.06;77.64
59859;BME280;45734;53.648;9.566;2024-03-17T22:18:31;53961.25;;;-145.06;78.41
59859;BME280;45734;53.648;9.566;2024-03-17T22:23:33;53981.50;;;-145.06;77.10
59859;BME280;45734;53.648;9.566;2024-03-17T22:28:34;54013.91;;;-145.06;75.00
59859;BME280;45734;53.648;9.566;2024-03-17T22:33:34;53991.63;;;-145.06;75.07
59859;BME280;45734;53.648;9.566;2024-03-17T22:38:36;53985.53;;;-145.06;78.60
59859;BME280;45734;53.648;9.566;2024-03-17T22:43:38;53989.59;;;-145.06;79.56
59859;BME280;45734;53.648;9.566;2024-03-17T22:48:42;53985.53;;;-145.06;78.99
59859;BME280;45734;53.648;9.566;2024-03-17T22:53:44;53936.94;;;-145.06;79.37
59859;BME280;45734;53.648;9.566;2024-03-17T22:58:44;53985.53;;;-145.06;79.62
59859;BME280;45734;53.648;9.566;2024-03-17T23:03:46;53989.59;;;-145.06;81.18
59859;BME280;45734;53.648;9.566;2024-03-17T23:08:46;53997.69;;;-145.06;79.87
59859;BME280;45734;53.648;9.566;2024-03-17T23:13:49;53983.53;;;-145.06;80.25
59859;BME280;45734;53.648;9.566;2024-03-17T23:18:51;53971.38;;;-145.06;81.23
59859;BME280;45734;53.648;9.566;2024-03-17T23:23:51;54001.75;;;-145.06;81.13
59859;BME280;45734;53.648;9.566;2024-03-17T23:28:51;53981.50;;;-145.06;81.63
59859;BME280;45734;53.648;9.566;2024-03-17T23:33:52;54013.91;;;-145.06;81.54
59859;BME280;45734;53.648;9.566;2024-03-17T23:38:53;54019.97;;;-145.06;82.69
59859;BME280;45734;53.648;9.566;2024-03-17T23:43:55;53989.59;;;-145.06;83.15
59859;BME280;45734;53.648;9.566;2024-03-17T23:48:55;54003.78;;;-145.06;83.31
59859;BME280;45734;53.648;9.566;2024-03-17T23:53:56;54017.94;;;-145.06;83.19
59859;BME280;45734;53.648;9.566;2024-03-17T23:58:57;53973.41;;;-145.06;83.95
